Flight Track Log - Related Links

Times and Time Zones

All times are in EDT time to prevent confusion due to time zone crossing. See the VOZ960 flight status page for this flight to view local times or setup timezone preferences in your user account.

Time Position Orientation Groundspeed Altitude Reporting Facility
EDT Latitude Longitude Course Direction KTS MPH feet Rate Location/Type
Tue 01:43:30 AM -27.3971 153.1214 207° Southwest 149 171 300  Level FlightAware ADS-B (YBBN / BNE)
Tue 01:43:46 AM -27.4065 153.1159 208° Southwest 147 169 1,000 2,516 Climbing FlightAware ADS-B (YBBN / BNE)
Tue 01:44:01 AM -27.4160 153.1115 192° South 158 182 1,600 2,000 Climbing FlightAware ADS-B (YBBN / BNE)
Tue 01:44:16 AM -27.4282 153.1126 166° South 187 215 2,000 2,000 Climbing FlightAware ADS-B (YBBN / BNE)
Tue 01:44:31 AM -27.4417 153.1190 155° Southeast 215 247 2,600 2,903 Climbing FlightAware ADS-B (YBBN / BNE)
Tue 01:44:47 AM -27.4552 153.1264 154° Southeast 225 259 3,500 3,677 Climbing FlightAware ADS-B (YBBN / BNE)
Tue 01:45:02 AM -27.4708 153.1351 154° Southeast 229 264 4,500 4,000 Climbing FlightAware ADS-B (YBBN / BNE)
Tue 01:45:17 AM -27.4851 153.1429 155° Southeast 230 265 5,500 3,800 Climbing FlightAware ADS-B (YBBN / BNE)
Tue 01:45:32 AM -27.5007 153.1465 178° South 228 262 6,400 3,484 Climbing FlightAware ADS-B (YBBN / BNE)
Tue 01:45:48 AM -27.5162 153.1441 192° South 233 268 7,300 2,710 Climbing FlightAware ADS-B (YBBN / BNE)
Tue 01:46:03 AM -27.5333 153.1401 192° South 253 291 7,800 2,600 Climbing FlightAware ADS-B (YBBN / BNE)
Tue 01:46:18 AM -27.5510 153.1357 193° South 259 298 8,600 3,600 Climbing FlightAware ADS-B (YBBN / BNE)
Tue 01:46:33 AM -27.5684 153.1298 199° South 259 298 9,600 2,760 Climbing FlightAware ADS-B (YBBN / BNE)
Tue 01:47:08 AM -27.6107 153.1133 200° South 297 342 10,900 2,182 Climbing FlightAware ADS-B (YBBN / BNE)
Tue 01:47:39 AM -27.6529 153.0968 199° South 326 375 12,000 2,710 Climbing FlightAware ADS-B (YBBN / BNE)
Tue 01:48:10 AM -27.6989 153.0790 199° South 336 387 13,700 3,097 Climbing FlightAware ADS-B (YBBN / BNE)
Tue 01:48:41 AM -27.7455 153.0607 199° South 346 398 15,200 2,930 Climbing FlightAware ADS-B (YBBN / BNE)
Tue 01:48:53 AM -27.7624 153.0541 200° South 341 392 15,800 3,120 Climbing FlightAware ADS-B (EGHI / SOU)
Tue 01:49:31 AM -27.8217 153.0308 199° South 353 406 17,800 2,912 Climbing FlightAware ADS-B (YBBN / BNE)
Tue 01:50:01 AM -27.8689 153.0120 200° South 363 418 19,100 2,595 Climbing FlightAware ADS-B (YBBN / BNE)
Tue 01:50:08 AM -27.8789 153.0081 200° South 356 410 19,400 2,368 Climbing FlightAware ADS-B (EGHI / SOU)
Tue 01:51:17 AM -27.9912 152.9637 200° South 380 437 22,100 2,400 Climbing FlightAware ADS-B
Tue 01:51:18 AM -27.9947 152.9623 199° South 381 438 22,200 2,516 Climbing FlightAware ADS-B (YBBN / BNE)
Tue 01:51:48 AM -28.0435 152.9431 200° South 385 443 23,400 2,500 Climbing FlightAware ADS-B
Tue 01:52:18 AM -28.0956 152.9224 201° Southwest 385 443 24,700 2,400 Climbing FlightAware ADS-B (YBBN / BNE)
Tue 01:52:48 AM -28.1449 152.9006 202° Southwest 386 444 25,800 1,756 Climbing FlightAware ADS-B (YBBN / BNE)
Tue 01:52:59 AM -28.1518 152.8975 202° Southwest 387 445 25,900 1,800 Climbing FlightAware ADS-B
Tue 01:53:18 AM -28.1948 152.8782 202° Southwest 384 442 26,700 2,143 Climbing FlightAware ADS-B (EGHI / SOU)
Tue 01:53:27 AM -28.2102 152.8713 202° Southwest 393 452 26,900 1,500 Climbing FlightAware ADS-B
Tue 01:53:50 AM -28.2499 152.8536 202° Southwest 399 459 27,500 1,625 Climbing FlightAware ADS-B (YBBN / BNE)
Tue 01:54:15 AM -28.2931 152.8344 202° Southwest 399 459 28,200 1,600 Climbing FlightAware ADS-B
Tue 01:54:20 AM -28.3000 152.8313 202° Southwest 403 464 28,300 1,714 Climbing FlightAware ADS-B (YBBN / BNE)
Tue 01:54:50 AM -28.3545 152.8071 202° Southwest 406 467 29,200 1,600 Climbing FlightAware ADS-B (YBBN / BNE)
Tue 01:55:05 AM -28.3797 152.7958 202° Southwest 407 468 29,500 1,548 Climbing FlightAware ADS-B
Tue 01:55:21 AM -28.4094 152.7825 202° Southwest 411 473 30,000 1,655 Climbing FlightAware ADS-B (YBBN / BNE)
Tue 01:55:34 AM -28.4279 152.7742 202° Southwest 412 474 30,300 1,600 Climbing FlightAware ADS-B
Tue 01:55:51 AM -28.4601 152.7598 202° Southwest 413 475 30,800 1,636 Climbing FlightAware ADS-B (YBBN / BNE)
Tue 01:56:07 AM -28.4799 152.7511 202° Southwest 412 474 31,200 1,800 Climbing FlightAware ADS-B
Tue 01:56:21 AM -28.5146 152.7355 202° Southwest 412 474 31,700 1,773 Climbing FlightAware ADS-B (YBBN / BNE)
Tue 01:56:51 AM -28.5678 152.7117 202° Southwest 411 473 32,500 1,279 Climbing FlightAware ADS-B (YBBN / BNE)
Tue 01:57:22 AM -28.6242 152.6862 202° Southwest 417 480 33,000 1,161 Climbing FlightAware ADS-B (YBBN / BNE)
Tue 01:57:53 AM -28.6773 152.6624 202° Southwest 417 480 33,700 1,548 Climbing FlightAware ADS-B (YBBN / BNE)
Tue 01:58:24 AM -28.7337 152.6372 202° Southwest 415 478 34,600 1,574 Climbing FlightAware ADS-B (YBBN / BNE)
Tue 01:58:54 AM -28.7886 152.6126 202° Southwest 412 474 35,300 1,400 Climbing FlightAware ADS-B (YBBN / BNE)
Tue 01:59:24 AM -28.8404 152.5893 202° Southwest 410 472 36,000 1,200 Climbing FlightAware ADS-B (YBBN / BNE)
Tue 02:00:09 AM -28.9215 152.5526 202° Southwest 411 473 36,800 1,040 Climbing FlightAware ADS-B (YBBN / BNE)
Tue 02:00:39 AM -28.9688 152.5312 202° Southwest 412 474 37,300 900 Climbing FlightAware ADS-B (YBBN / BNE)
Tue 02:01:09 AM -29.0282 152.5044 202° Southwest 413 475 37,700 909 Climbing FlightAware ADS-B (YBBN / BNE)
Tue 02:01:45 AM -29.0899 152.4765 202° Southwest 413 475 38,300 909 Climbing FlightAware ADS-B (YBBN / BNE)
Tue 02:02:15 AM -29.1447 152.4517 202° Southwest 413 475 38,700 900 Climbing FlightAware ADS-B (YBBN / BNE)
Tue 02:02:45 AM -29.1984 152.4275 202° Southwest 410 472 39,200 1,000 Climbing FlightAware ADS-B (YBBN / BNE)
Tue 02:03:15 AM -29.2501 152.4041 202° Southwest 408 470 39,700 800 Climbing FlightAware ADS-B (YBBN / BNE)
Tue 02:03:45 AM -29.3033 152.3797 202° Southwest 405 466 40,000 295 Climbing FlightAware ADS-B (YBBN / BNE)
Tue 02:04:16 AM -29.3566 152.3555 202° Southwest 407 468 40,000  Level FlightAware ADS-B (YBBN / BNE)
Tue 02:04:46 AM -29.4096 152.3311 202° Southwest 408 470 40,000  Level FlightAware ADS-B (YBBN / BNE)
Tue 02:05:16 AM -29.4603 152.3079 202° Southwest 410 472 40,000  Level FlightAware ADS-B (YBBN / BNE)
Tue 02:05:46 AM -29.5157 152.2828 202° Southwest 410 472 40,000  Level FlightAware ADS-B (YBBN / BNE)
Tue 02:06:16 AM -29.5678 152.2591 202° Southwest 409 471 40,000  Level FlightAware ADS-B (YBBN / BNE)
Tue 02:06:46 AM -29.6216 152.2347 202° Southwest 408 470 40,000  Level FlightAware ADS-B (YBBN / BNE)
Tue 02:07:16 AM -29.6712 152.2120 202° Southwest 407 468 40,000  Level FlightAware ADS-B (YBBN / BNE)
Tue 02:07:46 AM -29.7264 152.1867 202° Southwest 408 470 40,000  Level FlightAware ADS-B (YBBN / BNE)
Tue 02:08:31 AM -29.8055 152.1505 202° Southwest 409 471 40,000  Level FlightAware ADS-B (YBBN / BNE)
Tue 02:09:52 AM -29.9467 152.0838 202° Southwest 411 473 40,000  Level Aus ATC (RADAR)
Tue 02:10:12 AM -29.9819 152.0679 201° Southwest 412 474 40,000  Level Aus ATC (RADAR)
Tue 02:11:17 AM -30.0963 152.0162 201° Southwest 412 474 40,000  Level Aus ATC (RADAR)
Tue 02:11:37 AM -30.1312 151.9999 202° Southwest 409 471 40,000  Level Aus ATC (RADAR)
Tue 02:12:12 AM -30.1923 151.9713 202° Southwest 407 468 40,000  Level Aus ATC (RADAR)
Tue 02:13:37 AM -30.3415 151.9024 202° Southwest 409 471 40,000  Level Aus ATC (RADAR)
Tue 02:13:52 AM -30.3679 151.8902 202° Southwest 409 471 40,000 86 Level Aus ATC (RADAR)
Tue 02:14:47 AM -30.4645 151.8450 202° Southwest 410 472 40,100 67 Climbing Aus ATC (RADAR)
Tue 02:15:21 AM -30.5262 151.8166 202° Southwest 410 472 40,100 -67 Level Aus ATC (RADAR)
Tue 02:16:16 AM -30.6232 151.7712 202° Southwest 412 474 40,000 -63 Descending Aus ATC (RADAR)
Tue 02:16:57 AM -30.6941 151.7380 202° Southwest 414 476 40,000  Level Aus ATC (RADAR)
Tue 02:17:56 AM -30.8013 151.6878 202° Southwest 416 479 40,000  Level Aus ATC (RADAR)
Tue 02:18:51 AM -30.9012 151.6416 202° Southwest 420 483 40,000  Level FlightAware ADS-B (YPLB)
Tue 02:19:21 AM -30.9544 151.6160 202° Southwest 421 484 40,000  Level Aus ATC (RADAR)
Tue 02:19:32 AM -30.9700 151.6092 202° Southwest 422 486 40,000 120 Level FlightAware ADS-B (YPLB)
Tue 02:20:11 AM -31.0450 151.5735 202° Southwest 422 486 40,100  Climbing Aus ATC (RADAR)
Tue 02:20:31 AM -31.0632 151.5654 202° Southwest 417 480 40,000 -98 Descending FlightAware ADS-B (YPLB)
Tue 02:21:12 AM -31.1472 151.5258 202° Southwest 408 470 40,000  Level FlightAware ADS-B (YPLB)
Tue 02:21:51 AM -31.2211 151.4908 202° Southwest 406 467 40,000  Level FlightAware ADS-B (YPLB)
Tue 02:22:30 AM -31.2782 151.4638 202° Southwest 405 466 40,000  Level FlightAware ADS-B (YPLB)
Tue 02:23:10 AM -31.3586 151.4256 202° Southwest 404 465 40,000  Level FlightAware ADS-B (YSRI)
Tue 02:23:31 AM -31.3816 151.4147 201° Southwest 403 464 40,000  Level FlightAware ADS-B (YSRI)
Tue 02:24:10 AM -31.4597 151.3720 213° Southwest 389 448 40,000  Level FlightAware ADS-B (YPLB)
Tue 02:24:52 AM -31.5128 151.3122 233° Southwest 374 430 40,000  Level FlightAware ADS-B (YPLB)
Tue 02:25:26 AM -31.5393 151.2526 250° West 368 423 40,000  Level FlightAware ADS-B (YSRI)
Tue 02:25:57 AM -31.5564 151.1973 250° West 367 422 40,000  Level FlightAware ADS-B (YSRI)
Tue 02:26:29 AM -31.5717 151.1479 250° West 366 421 40,000  Level FlightAware ADS-B (YPLB)
Tue 02:26:59 AM -31.5564 151.1973 250° West 366 421 40,000  Level FlightAware ADS-B (YSRI)
Tue 02:27:31 AM -31.5717 151.1479 250° West 368 423 40,000 83 Level FlightAware ADS-B (YPLB)
Tue 02:28:11 AM -31.6340 150.9455 250° West 357 411 40,100 100 Climbing Aus ATC (RADAR)
Tue 02:28:31 AM -31.6455 150.9079 250° West 356 410 40,100 -182 Level Aus ATC (RADAR)
Tue 02:28:44 AM -31.6217 150.9861 250° West 367 422 40,000 -136 Descending FlightAware ADS-B (YSRI)
Tue 02:29:15 AM -31.6685 150.8413 231° Southwest 376 433 40,000  Level FlightAware ADS-B (YSRI)
Tue 02:29:29 AM -31.6946 150.8076 217° Southwest 385 443 40,000  Level FlightAware ADS-B (YSRI)
Tue 02:29:45 AM -31.7109 150.7960 201° Southwest 401 461 40,000  Level FlightAware ADS-B (YSRI)
Tue 02:30:00 AM -31.7476 150.7840 191° South 410 472 40,000 -621 Level FlightAware ADS-B (YSRI)
Tue 02:30:14 AM -31.7746 150.7850 173° South 428 493 39,700 -2,533 Descending FlightAware ADS-B (YSRI)
Tue 02:30:45 AM -31.8380 150.7959 171° South 443 510 38,100 -2,806 Descending FlightAware ADS-B (YSRI)
Tue 02:31:16 AM -31.8961 150.8064 171° South 448 516 36,800 -1,859 Descending FlightAware ADS-B (YSRI)
Tue 02:31:56 AM -31.9789 150.8212 171° South 431 496 35,900 -1,071 Descending FlightAware ADS-B (YSRI)
Tue 02:32:12 AM -32.0129 150.8273 171° South 417 480 35,800 -360 Descending FlightAware ADS-B (YPLB)
Tue 02:32:46 AM -32.0569 150.8348 172° South 387 445 35,600 -750 Descending FlightAware ADS-B (YSRI)
Tue 02:33:16 AM -32.1264 150.8464 172° South 375 432 35,000 -1,404 Descending FlightAware ADS-B (YSRI)
Tue 02:33:33 AM -32.1405 150.8488 172° South 370 426 34,500 -1,622 Descending FlightAware ADS-B (YSRI)
Tue 02:33:53 AM -32.1896 150.8571 171° South 367 422 34,000 -1,448 Descending FlightAware ADS-B (YPLB)
Tue 02:34:31 AM -32.2460 150.8673 171° South 359 413 33,100 -1,412 Descending FlightAware ADS-B (YSRI)
Tue 02:35:01 AM -32.3007 150.8770 172° South 351 404 32,400 -1,429 Descending FlightAware ADS-B (YSRI)
Tue 02:35:34 AM -32.3536 150.8865 171° South 343 395 31,600 -1,292 Descending FlightAware ADS-B (YSRI)
Tue 02:36:06 AM -32.3692 150.8893 171° South 333 383 31,000 -1,161 Descending FlightAware ADS-B (YSRI)
Tue 02:36:36 AM -32.4485 150.9038 171° South 322 371 30,400 -1,100 Descending FlightAware ADS-B (YSRI)
Tue 02:37:06 AM -32.4898 150.9111 172° South 312 359 29,900 -1,050 Descending FlightAware ADS-B (YSRI)
Tue 02:37:16 AM -32.5044 150.9136 171° South 308 354 29,700 -1,200 Descending FlightAware ADS-B (YPLB)
Tue 02:37:46 AM -32.5450 150.9207 172° South 302 348 29,100 -1,300 Descending FlightAware ADS-B (YSRI)
Tue 02:38:16 AM -32.5883 150.9282 172° South 296 341 28,400 -1,469 Descending FlightAware ADS-B (YSRI)
Tue 02:38:35 AM -32.6147 150.9328 171° South 294 338 27,900 -1,463 Descending FlightAware ADS-B (YPLB)
Tue 02:38:57 AM -32.6446 150.9380 172° South 293 337 27,400 -1,400 Descending FlightAware ADS-B (YRAY)
Tue 02:39:05 AM -32.6558 150.9400 172° South 293 337 27,200 -1,579 Descending FlightAware ADS-B (YRAY)
Tue 02:39:35 AM -32.6959 150.9473 171° South 292 336 26,400 -1,437 Descending FlightAware ADS-B (YPLB)
Tue 02:40:16 AM -32.7490 150.9570 171° South 288 331 25,500 -1,352 Descending FlightAware ADS-B (YSRI)
Tue 02:40:46 AM -32.7892 150.9641 172° South 285 328 24,800 -1,385 Descending FlightAware ADS-B (YSRI)
Tue 02:41:08 AM -32.8161 150.9687 172° South 284 327 24,300 -1,286 Descending FlightAware ADS-B
Tue 02:41:14 AM -32.8256 150.9704 171° South 283 326 24,200 -1,333 Descending FlightAware ADS-B (YPLB)
Tue 02:41:44 AM -32.8646 150.9774 172° South 279 321 23,500 -1,355 Descending FlightAware ADS-B (YRAY)
Tue 02:42:16 AM -32.9014 150.9838 172° South 276 318 22,800 -1,452 Descending FlightAware ADS-B (YSRI)
Tue 02:42:46 AM -32.9394 150.9905 172° South 279 321 22,000 -1,500 Descending FlightAware ADS-B (YSRI)
Tue 02:43:16 AM -32.9818 150.9982 171° South 280 322 21,300 -1,355 Descending FlightAware ADS-B (YSRI)
Tue 02:43:48 AM -33.0222 151.0053 172° South 278 320 20,600 -1,219 Descending FlightAware ADS-B (YRAY)
Tue 02:44:20 AM -33.0619 151.0125 172° South 271 312 20,000 -1,065 Descending FlightAware ADS-B (YSRI)
Tue 02:44:50 AM -33.0987 151.0190 171° South 264 304 19,500 -968 Descending FlightAware ADS-B (YSRI)
Tue 02:45:22 AM -33.1373 151.0260 172° South 256 295 19,000 -1,048 Descending FlightAware ADS-B (YSRI)
Tue 02:45:53 AM -33.1737 151.0325 172° South 251 289 18,400 -1,174 Descending FlightAware ADS-B (YSSY / SYD)
Tue 02:46:08 AM -33.1906 151.0354 171° South 242 278 18,100 -1,500 Descending FlightAware ADS-B (YRAY)
Tue 02:46:41 AM -33.2274 151.0423 171° South 251 289 17,200 -1,737 Descending FlightAware ADS-B (YSRI)
Tue 02:46:46 AM -33.2343 151.0437 170° South 256 295 17,000 -2,400 Descending FlightAware ADS-B (YPLB)
Tue 02:47:06 AM -33.2577 151.0483 170° South 263 303 16,200 -1,889 Descending FlightAware ADS-B (YPLB)
Tue 02:47:40 AM -33.2966 151.0557 172° South 260 299 15,300 -1,662 Descending FlightAware ADS-B (YSRI)
Tue 02:48:11 AM -33.3326 151.0620 171° South 259 298 14,400 -1,532 Descending FlightAware ADS-B (YSRI)
Tue 02:48:27 AM -33.3536 151.0659 170° South 258 297 14,100 -1,241 Descending FlightAware ADS-B (YPLB)
Tue 02:48:40 AM -33.3693 151.0690 170° South 254 292 13,800 -1,385 Descending FlightAware ADS-B (YPLB)
Tue 02:49:06 AM -33.3994 151.0732 184° South 248 285 13,200 -1,200 Descending FlightAware ADS-B (YSRI)
Tue 02:49:10 AM -33.4005 151.0731 183° South 247 284 13,200 -1,500 Level FlightAware ADS-B (YPLB)
Tue 02:49:18 AM -33.4122 151.0699 196° South 247 284 12,900 -1,714 Descending FlightAware ADS-B
Tue 02:49:31 AM -33.4279 151.0668 184° South 246 283 12,600 -1,273 Descending FlightAware ADS-B (YRAY)
Tue 02:49:51 AM -33.4499 151.0657 183° South 240 276 12,200 -1,304 Descending FlightAware ADS-B (YPLB)
Tue 02:49:54 AM -33.4527 151.0654 185° South 241 277 12,100 -1,714 Descending FlightAware ADS-B (YRAY)
Tue 02:50:12 AM -33.4732 151.0644 180° South 242 278 11,600 -1,500 Descending FlightAware ADS-B (YSRI)
Tue 02:50:30 AM -33.4933 151.0666 171° South 241 277 11,200 -1,317 Descending FlightAware ADS-B (YPLB)
Tue 02:50:53 AM -33.5166 151.0736 162° South 234 269 10,700 -1,333 Descending FlightAware ADS-B (YSSY / SYD)
Tue 02:50:57 AM -33.5231 151.0761 161° South 232 267 10,600 -947 Descending FlightAware ADS-B
Tue 02:51:12 AM -33.5374 151.0822 160° South 223 257 10,400 -1,297 Descending FlightAware ADS-B (YRAY)
Tue 02:51:34 AM -33.5584 151.0899 166° South 227 261 9,800 -1,448 Descending FlightAware ADS-B (YSSY / SYD)
Tue 02:51:41 AM -33.5662 151.0922 166° South 228 262 9,700 -1,304 Descending FlightAware ADS-B (YPLB)
Tue 02:51:57 AM -33.5832 151.0958 172° South 227 261 9,300 -1,579 Descending FlightAware ADS-B (YRAY)
Tue 02:52:00 AM -33.5874 151.0965 172° South 226 260 9,200 -1,500 Descending FlightAware ADS-B (YPLB)
Tue 02:52:17 AM -33.5995 151.0981 174° South 219 252 8,800 -1,111 Descending FlightAware ADS-B
Tue 02:52:27 AM -33.6136 151.1000 172° South 209 241 8,700 -960 Descending FlightAware ADS-B (YRAY)
Tue 02:52:42 AM -33.6273 151.1029 168° South 216 249 8,400 -1,548 Descending FlightAware ADS-B (YSRI)
Tue 02:52:58 AM -33.6454 151.1084 164° South 214 246 7,900 -1,818 Descending FlightAware ADS-B
Tue 02:53:15 AM -33.6598 151.1136 164° South 211 243 7,400 -1,688 Descending FlightAware ADS-B (YSRI)
Tue 02:53:30 AM -33.6714 151.1184 153° Southeast 202 232 7,000 -2,100 Descending FlightAware ADS-B (YSRI)
Tue 02:53:35 AM -33.6771 151.1233 142° Southeast 200 230 6,700 -2,000 Descending FlightAware ADS-B
Tue 02:53:39 AM -33.6796 151.1266 131° Southeast 201 231 6,700 -1,200 Level FlightAware ADS-B (YRAY)
Tue 02:53:45 AM -33.6821 151.1316 120° Southeast 203 234 6,500 -1,636 Descending FlightAware ADS-B (YSRI)
Tue 02:54:01 AM -33.6884 151.1481 114° Southeast 197 227 6,100 -1,935 Descending FlightAware ADS-B
Tue 02:54:16 AM -33.6922 151.1585 113° Southeast 189 217 5,500 -2,222 Descending FlightAware ADS-B (YSRI)
Tue 02:54:28 AM -33.6970 151.1722 113° Southeast 188 216 5,100 -3,000 Descending FlightAware ADS-B (YSRI)
Tue 02:54:34 AM -33.7003 151.1815 118° Southeast 181 208 4,600 -2,333 Descending FlightAware ADS-B
Tue 02:54:46 AM -33.7046 151.1890 136° Southeast 171 197 4,400 -800 Descending FlightAware ADS-B (YSRI)
Tue 02:54:49 AM -33.7072 151.1914 137° Southeast 169 194 4,400 -1,333 Level FlightAware ADS-B (YPLB)
Tue 02:54:55 AM -33.7113 151.1936 160° South 159 183 4,200 -2,000 Descending FlightAware ADS-B (YRAY)
Tue 02:55:01 AM -33.7156 151.1944 177° South 154 177 4,000 -1,846 Descending FlightAware ADS-B (YSRI)
Tue 02:55:08 AM -33.7207 151.1932 197° South 151 174 3,800 -1,500 Descending FlightAware ADS-B (YRAY)
Tue 02:55:17 AM -33.7248 151.1903 216° Southwest 153 176 3,600 -1,000 Descending FlightAware ADS-B (YSRI)
Tue 02:55:32 AM -33.7337 151.1818 219° Southwest 144 166 3,400 -1,000 Descending FlightAware ADS-B (YSRI)
Tue 02:55:47 AM -33.7395 151.1761 219° Southwest 135 155 3,100 -857 Descending FlightAware ADS-B (YSRI)
Tue 02:56:00 AM -33.7470 151.1688 219° Southwest 130 150 3,000 -600 Descending FlightAware ADS-B (YSRI)
Tue 02:56:07 AM -33.7510 151.1660 204° Southwest 127 146 2,900 -643 Descending FlightAware ADS-B (YRAY)
Tue 02:56:28 AM -33.7629 151.1620 196° South 117 135 2,700 -581 Descending FlightAware ADS-B (YRAY)
Tue 02:56:38 AM -33.7693 151.1600 195° South 124 143 2,600 -300 Descending FlightAware ADS-B
Tue 02:56:48 AM -33.7741 151.1585 195° South 117 135 2,600 -462 Level FlightAware ADS-B (YRAY)
Tue 02:56:51 AM -33.7765 151.1579 195° South 125 144 2,500 -667 Descending FlightAware ADS-B
Tue 02:57:06 AM -33.7839 151.1555 194° South 126 145 2,400 -444 Descending FlightAware ADS-B (YSRI)
Tue 02:57:18 AM -33.7916 151.1532 194° South 126 145 2,300 -353 Descending FlightAware ADS-B
Tue 02:57:23 AM -33.7942 151.1525 182° South 127 146 2,300 -600 Level FlightAware ADS-B (YRAY)
Tue 02:57:28 AM -33.7921 151.1530 182° South 127 146 2,200 -429 Descending FlightAware ADS-B (YSSY / SYD)
Tue 02:57:51 AM -33.8100 151.1528 179° South 127 146 2,100 -158 Descending FlightAware ADS-B (YSRI)
Tue 02:58:06 AM -33.8155 151.1534 171° South 130 150 2,100  Level FlightAware ADS-B (YSRI)
Tue 02:58:29 AM -33.8326 151.1575 166° South 131 151 2,100 -158 Level FlightAware ADS-B (YPLB)
Tue 02:58:44 AM -33.8415 151.1601 167° South 133 153 2,000 -387 Descending FlightAware ADS-B (YSRI)
Tue 02:59:00 AM -33.8506 151.1627 167° South 134 154 1,900 -529 Descending FlightAware ADS-B
Tue 02:59:18 AM -33.8618 151.1656 168° South 134 154 1,700 -706 Descending FlightAware ADS-B (KCLL)
Tue 02:59:34 AM -33.8713 151.1680 168° South 128 147 1,500 -686 Descending FlightAware ADS-B (YSSY / SYD)
Tue 02:59:53 AM -33.8823 151.1709 168° South 126 145 1,300 -686 Descending FlightAware ADS-B (YSSY / SYD)
Tue 03:00:09 AM -33.8917 151.1732 168° South 129 148 1,100 -714 Descending FlightAware ADS-B (YPLB)
Tue 03:00:35 AM -33.9073 151.1774 168° South 136 157 800 -766 Descending FlightAware ADS-B (YRAY)
Tue 03:00:56 AM -33.9209 151.1810 167° South 136 157 500 -732 Descending FlightAware ADS-B (YRAY)
Tue 03:01:16 AM -33.9339 151.1842 167° South 134 154 300 -600 Descending FlightAware ADS-B (YRAY)

Login

Don't have an account? Register now (free) for customized features, flight alerts, and more!